Station info - map view · info · telemetry · weather · raw · status · beacons · messages · bulletins · browse · moving · my account
Callsign, ship name or locator: Clear       
It is possible to search using wildcards (*?) after a prefix. Example: OH*
APRS station KA1SAR-9 - show graphs
Map loading...
Mic-E message: Off duty
Location: 35°47.99' N 75°32.68' W - locator FM25FT41PX - show map - static map
6.0 miles Southeast bearing 119° from Wanchese, Dare County, North Carolina, United States [?]
10.5 miles Southeast bearing 136° from Manteo, Dare County, North Carolina, United States
76.6 miles South bearing 162° from Virginia Beach, City of Virginia Beach, Virginia, United States
83.2 miles Southeast bearing 150° from Norfolk, City of Norfolk, Virginia, United States
Last position: 2021-03-02 20:11:31 EST (2d 3h17m ago)
2021-03-02 20:11:31 EST local time at Wanchese, United States [?]
Altitude: 82 ft
Course: 67°
Speed: 4 MPH
Device: Yaesu: FTM-400DR (rig)
Last path: KA1SAR-9>SUTW9Y via KX4NC-4*,WIDE1*,qAR,N4ACT (good)
Positions stored: 8263
Packet rate: 123 seconds between packets on average during 2701 seconds.
Stations near current position of KA1SAR-9 - show more
callsign distance last heard - EST      callsign distance last heard - EST
fw59185.4 miles 340°2021-03-04 23:22:07 N1PLV7.6 miles 336°2021-03-04 23:14:59
W4PCN-1011.4 miles 315°2021-03-04 23:09:38 4-1011.4 miles 315°2021-03-03 14:05:44
N4ACT12.9 miles 335°2021-03-04 23:29:08 4AC12.9 miles 335°2021-03-03 04:42:17
EW767014.3 miles 163°2021-03-04 23:28:21 FW776418.9 miles 335°2021-02-19 20:10:24
K4JAR19.8 miles 336°2021-02-26 19:15:17 K4PLP20.9 miles 173°2021-02-09 17:30:36
MHXSVR8IA21.7 miles 197°2021-02-16 03:49:05 KR4PPY B33.5 miles 65°2021-03-04 23:15:18
KR4PPY-B33.5 miles 65°2021-03-04 23:15:18
Stations which heard KA1SAR-9 directly on radio –
callsign pkts first heard - EST last heard longest (tx => rx) longest at - EST
W4DEX 3 2021-03-01 21:03:40 2021-03-01 21:34:24 EM95QK > EM95TG 18.5 miles 136° 2021-03-01 21:20:24
KX4NC-4 48 2021-03-02 14:33:48 2021-03-02 20:11:31 FM25FT > FM15TV 45.5 miles 279° 2021-03-02 20:11:31
WR4AGC-3 5 2021-03-02 11:42:35 2021-03-02 12:24:23 FM05PS > FM06LB 26.7 miles 320° 2021-03-02 12:24:23
W4UNC-3 3 2021-03-02 11:44:19 2021-03-02 12:04:19 FM06GB > FM06NF 31.1 miles 67° 2021-03-02 11:44:19
N4TUF-2 2 2021-03-02 13:49:48 2021-03-02 13:53:49 FM15CW > FM15CX 2.5 miles 289° 2021-03-02 13:53:49
NC4HC-15 8 2021-03-01 15:50:39 2021-03-01 20:02:28 EM95FG > EM85TL 49.6 miles 285° 2021-03-01 20:02:28
N4ACT 22 2021-03-02 15:49:47 2021-03-02 20:06:19 FM25FU > FM25EX 9.6 miles 334° 2021-03-02 20:06:19
W4PSC-3 9 2021-03-01 15:38:08 2021-03-01 20:01:46 EM85TL > EM94JX 72.7 miles 118° 2021-03-01 15:38:08
KI4WXS-5 6 2021-03-01 19:40:49 2021-03-01 21:08:29 EM95FG > EM95PG 46.7 miles 92° 2021-03-01 19:40:49
K4OGB-9 1 2021-03-01 21:01:43 2021-03-01 21:01:43 EM95QK > EM95UI 18.5 miles 108° 2021-03-01 21:01:43
ND4L-10 31 2021-03-01 22:16:27 2021-03-02 11:27:06 EM95XU > FM05CW 15.3 miles 66° 2021-03-01 22:16:27
NN4BC-15 9 2021-03-01 14:20:15 2021-03-01 15:16:42 EM85SN > EM85QO 9.6 miles 285° 2021-03-01 15:16:42
W4BFB-6 4 2021-03-01 15:48:16 2021-03-01 20:25:24 EM85UK > EM95KH 65.6 miles 99° 2021-03-01 15:48:16
KR4AA-2 3 2021-03-02 13:33:29 2021-03-02 13:40:00 FM15AX > FM15AX 1.2 miles 52° 2021-03-02 13:40:00
ANDMTN 37 2021-03-01 15:56:24 2021-03-01 21:58:27 EM85VK > EM95KN 65.8 miles 81° 2021-03-01 17:21:12
WT4R-1 3 2021-03-01 11:49:58 2021-03-01 12:55:36 EM85MT > EM85EW 40.0 miles 283° 2021-03-01 12:55:36
CHMBRS 5 2021-03-01 12:48:23 2021-03-01 14:16:14 EM85MT > EM85NN 16.0 miles 169° 2021-03-01 12:48:23
NB2K 3 2021-03-01 12:50:36 2021-03-01 12:57:43 EM85MT > EM86OD 24.5 miles 21° 2021-03-01 12:57:43
KO4CEF-1 7 2021-03-01 15:49:48 2021-03-01 18:47:45 EM85UK > EM85XC 27.1 miles 153° 2021-03-01 15:49:48
KM4EYS-10 1 2021-03-01 22:00:28 2021-03-01 22:00:28 EM95TR > EM95WP 14.4 miles 113° 2021-03-01 22:00:28

Only position packets which were originated by the station are shown here. The range statistics show some extra long hops, because some digipeaters do not correctly add themselves to the digipeater path. Please check the raw packets.
About this site
This page shows real-time information collected from the Automatic Position Reporting System Internet network (APRS-IS). APRS is used by amateur (ham) radio operators to transmit real-time position information, weather data, telemetry and messages over the radio. A vehicle equipped with a GPS receiver, a VHF transmitter or HF transceiver and a small computer device called a tracker transmits it's location, speed and course in a small data packet, which is then received by a nearby iGate receiving site which forwards the packet on the Internet. Systems connected to the Internet can send information on the APRS-IS without a radio transmitter, or collect and display information transmitted anywhere in the world.
User guide · FAQ · Blog · Discussion group · Linking to aprs.fi · AIS sites · Service status · Database statistics · Advertising on aprs.fi · Technical details · API · Change log · Planned changes · Credits and thanks · Terms Of Service · iPhone/iPad APRS